createdAt,value
2018-06-08T00:00:45.358Z,6.73
2018-06-08T00:03:13.991Z,5.77
2018-06-08T00:05:42.559Z,6.60
2018-06-08T00:08:11.732Z,5.90
2018-06-08T00:10:40.284Z,5.33
2018-06-08T00:13:08.923Z,5.90
2018-06-08T00:15:37.487Z,6.00
2018-06-08T00:18:06.100Z,6.57
2018-06-08T00:20:34.660Z,6.10
2018-06-08T00:23:03.271Z,5.60
2018-06-08T00:25:31.846Z,6.40
2018-06-08T00:28:00.427Z,5.73
2018-06-08T00:30:28.984Z,6.20
2018-06-08T00:32:57.596Z,5.90
2018-06-08T00:35:26.207Z,6.10
2018-06-08T00:37:54.790Z,6.63
2018-06-08T00:40:23.557Z,6.30
2018-06-08T00:42:52.184Z,5.77
2018-06-08T00:45:20.803Z,4.93
2018-06-08T00:47:49.354Z,6.30
2018-06-08T00:50:17.945Z,6.53
2018-06-08T00:52:46.598Z,6.50
2018-06-08T00:55:14.879Z,6.03
2018-06-08T00:57:43.442Z,5.70
2018-06-08T01:00:12.055Z,5.67
2018-06-08T01:02:40.691Z,5.60
2018-06-08T01:05:09.402Z,5.50
2018-06-08T01:07:38.033Z,5.03
2018-06-08T01:10:06.650Z,5.97
2018-06-08T01:12:35.242Z,6.00
2018-06-08T01:15:03.871Z,5.97
2018-06-08T01:17:32.473Z,6.50
2018-06-08T01:20:01.051Z,5.90
2018-06-08T01:22:29.654Z,5.50
2018-06-08T01:24:58.292Z,7.70
2018-06-08T01:27:26.856Z,6.03
2018-06-08T01:29:55.458Z,6.17
2018-06-08T01:32:24.083Z,5.97
2018-06-08T01:34:52.326Z,6.27
2018-06-08T01:37:20.879Z,6.63
2018-06-08T01:39:49.471Z,5.40
2018-06-08T01:42:18.046Z,6.40
2018-06-08T01:44:46.667Z,6.40
2018-06-08T01:47:15.218Z,5.50
2018-06-08T01:49:43.817Z,6.10
2018-06-08T01:52:12.494Z,7.30
2018-06-08T01:54:41.075Z,6.10
2018-06-08T01:57:09.706Z,6.97
2018-06-08T01:59:38.327Z,5.60
2018-06-08T02:02:06.968Z,6.30
2018-06-08T02:04:35.586Z,6.47
2018-06-08T02:07:04.237Z,6.13
2018-06-08T02:09:32.850Z,6.83
2018-06-08T02:12:01.472Z,7.40
2018-06-08T02:14:30.050Z,6.77
2018-06-08T02:16:58.646Z,7.23
2018-06-08T02:19:27.218Z,6.53
2018-06-08T02:21:55.843Z,6.73
2018-06-08T02:24:24.405Z,6.73
2018-06-08T02:26:52.982Z,6.63
2018-06-08T02:29:21.567Z,6.07
2018-06-08T02:31:50.145Z,6.80
2018-06-08T02:34:18.713Z,6.87
2018-06-08T02:36:47.294Z,6.63
2018-06-08T02:39:15.859Z,7.13
2018-06-08T02:41:44.499Z,6.20
2018-06-08T02:44:13.058Z,7.83
2018-06-08T02:46:41.650Z,7.17
2018-06-08T02:49:10.210Z,7.50
2018-06-08T02:51:38.902Z,6.97
2018-06-08T02:54:07.496Z,6.47
2018-06-08T02:56:36.094Z,6.53
2018-06-08T02:59:04.688Z,6.47
2018-06-08T03:01:33.280Z,7.10
2018-06-08T03:04:01.847Z,11.70
2018-06-08T03:06:30.423Z,10.50
2018-06-08T03:08:59.016Z,6.93
2018-06-08T03:11:27.660Z,7.47
2018-06-08T03:13:56.251Z,6.93
2018-06-08T03:16:24.840Z,6.60
2018-06-08T03:18:53.451Z,7.17
2018-06-08T03:21:22.037Z,8.60
2018-06-08T03:23:50.618Z,7.67
2018-06-08T03:26:19.183Z,6.17
2018-06-08T03:28:47.790Z,8.23
2018-06-08T03:31:16.351Z,7.47
2018-06-08T03:33:44.956Z,7.37
2018-06-08T03:36:13.564Z,6.27
2018-06-08T03:38:42.187Z,7.33
2018-06-08T03:41:10.758Z,6.97
2018-06-08T03:43:39.357Z,7.70
2018-06-08T03:46:07.942Z,7.07
2018-06-08T03:48:36.548Z,7.50
2018-06-08T03:51:05.115Z,10.13
2018-06-08T03:53:33.693Z,8.70
2018-06-08T03:56:02.304Z,18.27
2018-06-08T03:58:30.868Z,17.70
2018-06-08T04:00:59.430Z,24.10
2018-06-08T04:03:28.073Z,18.90
2018-06-08T04:05:56.638Z,10.07
2018-06-08T04:08:25.247Z,8.63
2018-06-08T04:10:53.825Z,9.87
2018-06-08T04:13:22.451Z,10.60
2018-06-08T04:15:51.215Z,9.03
2018-06-08T04:18:19.802Z,8.43
2018-06-08T04:20:48.367Z,9.10
2018-06-08T04:23:16.938Z,11.80
2018-06-08T04:25:45.542Z,12.00
2018-06-08T04:28:14.120Z,9.90
2018-06-08T04:30:42.678Z,9.53
2018-06-08T04:33:11.229Z,8.50
2018-06-08T04:35:39.868Z,8.77
2018-06-08T04:38:08.496Z,11.47
2018-06-08T04:40:37.099Z,8.70
2018-06-08T04:43:05.692Z,9.53
2018-06-08T04:45:34.296Z,10.97
2018-06-08T04:48:02.913Z,10.70
2018-06-08T04:50:31.507Z,10.50
2018-06-08T04:53:00.063Z,9.20
2018-06-08T04:55:28.667Z,12.67
2018-06-08T04:57:57.223Z,12.20
2018-06-08T05:00:25.799Z,9.97
2018-06-08T05:02:54.371Z,10.00
2018-06-08T05:05:22.973Z,10.73
2018-06-08T05:07:51.555Z,10.07
2018-06-08T05:10:20.140Z,11.33
2018-06-08T05:12:48.734Z,11.47
2018-06-08T05:15:17.310Z,13.13
2018-06-08T05:17:45.887Z,11.37
2018-06-08T05:20:14.486Z,9.97
2018-06-08T05:22:43.075Z,11.77
2018-06-08T05:25:11.653Z,9.13
2018-06-08T05:27:40.236Z,9.30
2018-06-08T05:30:16.702Z,10.60
2018-06-08T05:32:45.337Z,10.20
2018-06-08T05:35:13.622Z,10.47
2018-06-08T05:37:42.185Z,11.30
2018-06-08T05:40:10.777Z,8.40
2018-06-08T05:42:39.043Z,8.53
2018-06-08T05:45:08.150Z,8.63
2018-06-08T05:47:36.735Z,9.50
2018-06-08T05:50:05.444Z,9.40
2018-06-08T05:52:34.009Z,7.73
2018-06-08T05:55:02.700Z,9.00
2018-06-08T05:57:31.248Z,8.43
2018-06-08T05:59:59.837Z,8.47
2018-06-08T06:02:28.450Z,8.40
2018-06-08T06:04:57.056Z,7.63
2018-06-08T06:07:25.675Z,7.37
2018-06-08T06:09:54.263Z,7.10
2018-06-08T06:12:22.879Z,6.63
2018-06-08T06:14:52.072Z,6.47
2018-06-08T06:17:20.646Z,6.40
2018-06-08T06:19:49.289Z,6.10
2018-06-08T06:22:17.873Z,7.90
2018-06-08T06:24:46.542Z,6.33
2018-06-08T06:27:15.134Z,6.57
2018-06-08T06:29:43.698Z,6.10
2018-06-08T06:32:12.301Z,6.20
2018-06-08T06:34:41.785Z,5.80
2018-06-08T06:37:10.387Z,6.03
2018-06-08T06:39:38.997Z,5.83
2018-06-08T06:42:07.602Z,6.03
2018-06-08T06:44:35.824Z,6.53
2018-06-08T06:47:04.477Z,5.67
2018-06-08T06:49:33.073Z,5.40
2018-06-08T06:52:01.675Z,6.00
2018-06-08T06:54:30.256Z,6.03
2018-06-08T06:56:58.895Z,5.30
2018-06-08T06:59:27.500Z,5.77
2018-06-08T07:01:58.937Z,7.20
2018-06-08T07:04:27.663Z,6.37
2018-06-08T07:06:56.264Z,6.43
2018-06-08T07:09:24.862Z,7.60
2018-06-08T07:11:53.475Z,6.90
2018-06-08T07:14:22.031Z,6.57
2018-06-08T07:16:50.620Z,6.43
2018-06-08T07:19:19.198Z,6.90
2018-06-08T07:21:47.786Z,7.07
2018-06-08T07:24:15.993Z,6.30
2018-06-08T07:26:44.591Z,6.50
2018-06-08T07:29:13.208Z,6.67
2018-06-08T07:31:41.965Z,6.57
2018-06-08T07:34:10.550Z,7.17
2018-06-08T07:36:39.206Z,6.70
2018-06-08T07:39:08.074Z,7.00
2018-06-08T07:41:37.017Z,5.80
2018-06-08T07:44:05.693Z,6.60
2018-06-08T07:46:34.222Z,6.90
2018-06-08T07:49:02.894Z,6.47
2018-06-08T07:51:31.507Z,5.83
2018-06-08T07:54:00.456Z,6.57
2018-06-08T07:56:29.014Z,6.23
2018-06-08T07:58:57.608Z,6.90
2018-06-08T08:01:26.175Z,5.63
2018-06-08T08:03:54.808Z,8.37
2018-06-08T08:06:23.553Z,5.97
2018-06-08T08:08:52.543Z,5.80
2018-06-08T08:11:21.098Z,6.80
2018-06-08T08:13:49.930Z,5.10
2018-06-08T08:16:20.335Z,6.00
2018-06-08T08:18:48.938Z,6.63
2018-06-08T08:21:17.540Z,6.40
2018-06-08T08:23:46.137Z,6.10
2018-06-08T08:26:14.724Z,6.10
2018-06-08T08:28:43.829Z,6.90
2018-06-08T08:31:12.888Z,5.83
2018-06-08T08:33:41.741Z,6.43
2018-06-08T08:36:10.282Z,5.90
2018-06-08T08:38:38.536Z,5.80
2018-06-08T08:41:07.154Z,6.20
2018-06-08T08:43:35.792Z,6.87
2018-06-08T08:46:04.351Z,6.33
2018-06-08T08:48:32.974Z,6.67
2018-06-08T08:51:01.555Z,6.70
2018-06-08T08:53:30.221Z,6.47
2018-06-08T08:55:58.785Z,7.00
2018-06-08T08:58:27.383Z,6.73
2018-06-08T09:00:55.985Z,7.43
2018-06-08T09:03:24.533Z,5.93
2018-06-08T09:05:53.102Z,6.30
2018-06-08T09:08:21.655Z,6.50
2018-06-08T09:10:50.418Z,6.30
2018-06-08T09:13:19.028Z,7.27
2018-06-08T09:15:47.658Z,6.67
2018-06-08T09:18:16.257Z,6.80
2018-06-08T09:20:44.990Z,7.17
2018-06-08T09:23:13.557Z,7.43
2018-06-08T09:25:42.156Z,7.73
2018-06-08T09:28:10.732Z,7.70
2018-06-08T09:30:39.390Z,7.30
2018-06-08T09:33:07.997Z,7.30
2018-06-08T09:35:36.574Z,8.60
2018-06-08T09:38:05.139Z,8.07
2018-06-08T09:40:33.758Z,7.23
2018-06-08T09:43:02.341Z,7.50
2018-06-08T09:45:30.920Z,7.80
2018-06-08T09:47:59.495Z,9.30
2018-06-08T09:50:28.362Z,7.80
2018-06-08T09:52:56.908Z,9.20
2018-06-08T09:55:26.616Z,7.33
2018-06-08T09:57:55.159Z,8.43
2018-06-08T10:00:29.233Z,8.77
2018-06-08T10:02:57.801Z,7.40
2018-06-08T10:05:26.474Z,7.67
2018-06-08T10:07:55.042Z,7.93
2018-06-08T10:10:23.688Z,8.10
2018-06-08T10:12:52.287Z,8.00
2018-06-08T10:15:20.530Z,7.20
2018-06-08T10:17:49.193Z,7.53
2018-06-08T10:20:18.080Z,7.27
2018-06-08T10:22:46.696Z,7.13
2018-06-08T10:25:15.271Z,7.97
2018-06-08T10:27:43.858Z,7.83
2018-06-08T10:30:12.440Z,8.57
2018-06-08T10:32:41.222Z,8.17
2018-06-08T10:35:09.833Z,8.67
2018-06-08T10:37:38.410Z,7.90
2018-06-08T10:40:07.016Z,8.63
2018-06-08T10:42:35.617Z,8.90
2018-06-08T10:45:04.250Z,8.73
2018-06-08T10:47:32.827Z,7.70
2018-06-08T10:50:01.383Z,8.67
2018-06-08T10:52:29.962Z,8.87
2018-06-08T10:54:58.968Z,7.93
2018-06-08T10:57:30.362Z,8.77
2018-06-08T10:59:59.167Z,8.00
2018-06-08T11:02:27.762Z,8.67
2018-06-08T11:04:56.322Z,8.10
2018-06-08T11:07:24.906Z,8.60
2018-06-08T11:09:53.462Z,7.83
2018-06-08T11:12:22.060Z,8.47
2018-06-08T11:14:50.318Z,9.10
2018-06-08T11:17:19.099Z,9.10
2018-06-08T11:19:47.693Z,9.20
2018-06-08T11:22:16.266Z,7.90
2018-06-08T11:24:44.922Z,9.20
2018-06-08T11:27:13.506Z,9.73
2018-06-08T11:29:42.106Z,8.80
2018-06-08T11:32:10.721Z,7.87
2018-06-08T11:34:39.304Z,9.10
2018-06-08T11:37:07.921Z,9.20
2018-06-08T11:39:36.487Z,9.57
2018-06-08T11:42:05.159Z,8.63
2018-06-08T11:44:33.795Z,8.70
2018-06-08T11:47:02.387Z,8.73
2018-06-08T11:49:30.950Z,8.77
2018-06-08T11:51:59.524Z,8.67
2018-06-08T11:54:28.116Z,9.40
2018-06-08T11:56:56.682Z,8.37
2018-06-08T11:59:25.284Z,9.00
2018-06-08T12:01:53.861Z,9.17
2018-06-08T12:04:22.575Z,9.90
2018-06-08T12:06:51.131Z,8.57
2018-06-08T12:09:19.713Z,7.70
2018-06-08T12:11:48.303Z,8.43
2018-06-08T12:14:16.930Z,8.63
2018-06-08T12:16:46.050Z,8.43
2018-06-08T12:19:14.650Z,8.50
2018-06-08T12:21:43.194Z,8.33
2018-06-08T12:24:12.391Z,8.37
2018-06-08T12:26:40.954Z,8.00
2018-06-08T12:29:09.551Z,8.20
2018-06-08T12:31:38.110Z,7.90
2018-06-08T12:34:06.690Z,7.40
2018-06-08T12:36:35.279Z,7.80
2018-06-08T12:39:04.336Z,7.77
2018-06-08T12:41:32.889Z,6.90
2018-06-08T12:44:01.551Z,8.10
2018-06-08T12:46:30.097Z,7.23
2018-06-08T12:48:58.753Z,7.53
2018-06-08T12:51:27.413Z,7.07
2018-06-08T12:53:55.893Z,7.50
2018-06-08T12:56:24.489Z,8.60
2018-06-08T12:58:53.122Z,8.00
2018-06-08T13:01:21.698Z,7.10
2018-06-08T13:03:50.286Z,8.03
2018-06-08T13:06:19.406Z,6.77
2018-06-08T13:08:48.073Z,7.53
2018-06-08T13:11:17.225Z,7.50
2018-06-08T13:13:45.852Z,7.67
2018-06-08T13:16:14.710Z,7.53
2018-06-08T13:18:43.303Z,7.60
2018-06-08T13:21:12.488Z,7.33
2018-06-08T13:23:41.157Z,7.00
2018-06-08T13:26:10.256Z,8.90
2018-06-08T13:28:38.879Z,7.47
2018-06-08T13:31:07.517Z,8.30
2018-06-08T13:33:35.748Z,7.53
2018-06-08T13:36:04.366Z,7.77
2018-06-08T13:38:33.032Z,8.17
2018-06-08T13:41:01.657Z,8.10
2018-06-08T13:43:30.239Z,7.80
2018-06-08T13:45:58.498Z,7.50
2018-06-08T13:48:27.054Z,8.03
2018-06-08T13:50:55.635Z,7.53
2018-06-08T13:53:24.271Z,7.47
2018-06-08T13:55:52.887Z,7.87
2018-06-08T13:58:21.475Z,8.00
2018-06-08T14:00:50.079Z,7.93
2018-06-08T14:03:18.642Z,7.40
2018-06-08T14:05:47.218Z,7.60
2018-06-08T14:08:15.786Z,7.50
2018-06-08T14:10:44.397Z,7.90
2018-06-08T14:13:12.982Z,8.90
2018-06-08T14:15:41.623Z,8.20
2018-06-08T14:18:10.777Z,7.90
2018-06-08T14:20:39.382Z,7.93
2018-06-08T14:23:07.622Z,8.20
2018-06-08T14:25:36.242Z,8.10
2018-06-08T14:28:04.839Z,8.70
2018-06-08T14:30:33.410Z,8.20
2018-06-08T14:33:02.051Z,7.60
2018-06-08T14:35:30.658Z,7.40
2018-06-08T14:37:59.252Z,8.20
2018-06-08T14:40:27.496Z,7.57
2018-06-08T14:42:56.092Z,7.03
2018-06-08T14:45:24.741Z,7.73
2018-06-08T14:47:53.322Z,8.47
2018-06-08T14:50:21.925Z,7.93
2018-06-08T14:52:50.552Z,7.60
2018-06-08T14:55:19.128Z,7.70
2018-06-08T14:57:47.712Z,7.20
2018-06-08T15:00:16.312Z,7.20
2018-06-08T15:02:44.932Z,7.60
2018-06-08T15:05:13.559Z,8.00
2018-06-08T15:07:41.806Z,8.03
2018-06-08T15:10:10.485Z,7.47
2018-06-08T15:12:39.071Z,7.00
2018-06-08T15:15:07.667Z,7.30
2018-06-08T15:17:36.309Z,7.10
2018-06-08T15:20:04.903Z,7.40
2018-06-08T15:22:33.444Z,7.90
2018-06-08T15:25:02.000Z,8.00
2018-06-08T15:27:30.619Z,7.20
2018-06-08T15:29:59.174Z,7.27
2018-06-08T15:32:27.767Z,7.13
2018-06-08T15:34:56.013Z,7.07
2018-06-08T15:37:24.605Z,7.13
2018-06-08T15:39:53.180Z,6.97
2018-06-08T15:42:21.778Z,7.30
2018-06-08T15:44:50.321Z,7.10
2018-06-08T15:47:18.952Z,7.27
2018-06-08T15:49:47.523Z,6.73
2018-06-08T15:52:16.097Z,7.07
2018-06-08T15:54:44.654Z,6.80
2018-06-08T15:57:13.243Z,6.47
2018-06-08T15:59:41.815Z,6.60
2018-06-08T16:02:10.374Z,6.00
2018-06-08T16:04:38.935Z,6.90
2018-06-08T16:07:07.561Z,6.93
2018-06-08T16:09:36.151Z,6.43
2018-06-08T16:12:04.890Z,6.30
2018-06-08T16:14:33.120Z,6.40
2018-06-08T16:17:02.379Z,6.47
2018-06-08T16:19:30.960Z,6.33
2018-06-08T16:21:59.216Z,7.27
2018-06-08T16:24:27.833Z,6.20
2018-06-08T16:26:56.420Z,7.10
2018-06-08T16:29:25.042Z,5.93
2018-06-08T16:31:53.655Z,7.57
2018-06-08T16:34:22.324Z,6.00
2018-06-08T16:36:51.102Z,6.73
2018-06-08T16:39:19.647Z,6.30
2018-06-08T16:41:48.298Z,6.40
2018-06-08T16:44:16.975Z,6.30
2018-06-08T16:46:45.268Z,6.30
2018-06-08T16:49:13.864Z,6.43
2018-06-08T16:51:42.439Z,6.40
2018-06-08T16:54:11.047Z,6.67
2018-06-08T16:56:39.622Z,6.20
2018-06-08T16:59:08.220Z,6.10
2018-06-08T17:01:36.779Z,6.23
2018-06-08T17:04:05.378Z,6.67
2018-06-08T17:06:33.985Z,7.00
2018-06-08T17:09:02.634Z,6.10
2018-06-08T17:11:31.232Z,7.70
2018-06-08T17:13:59.858Z,6.57
2018-06-08T17:16:28.456Z,5.73
2018-06-08T17:18:57.045Z,6.70
2018-06-08T17:21:25.262Z,6.57
2018-06-08T17:23:53.873Z,8.27
2018-06-08T17:26:22.418Z,7.27
2018-06-08T17:28:51.034Z,7.30
2018-06-08T17:31:19.665Z,6.77
2018-06-08T17:33:49.234Z,6.73
2018-06-08T17:36:17.821Z,7.10
2018-06-08T17:38:46.531Z,6.77
2018-06-08T17:41:15.112Z,11.30
2018-06-08T17:43:43.747Z,11.83
2018-06-08T17:46:12.314Z,8.07
2018-06-08T17:48:40.941Z,8.67
2018-06-08T17:51:09.557Z,7.03
2018-06-08T17:53:38.326Z,7.50
2018-06-08T17:56:06.569Z,10.03
2018-06-08T17:58:35.238Z,7.77
2018-06-08T18:01:03.867Z,7.17
2018-06-08T18:03:32.450Z,7.60
2018-06-08T18:06:00.692Z,7.03
2018-06-08T18:08:29.478Z,7.70
2018-06-08T18:10:58.063Z,7.70
2018-06-08T18:13:26.675Z,7.70
2018-06-08T18:15:55.266Z,7.90
2018-06-08T18:18:23.490Z,7.30
2018-06-08T18:20:52.066Z,8.30
2018-06-08T18:23:20.671Z,8.17
2018-06-08T18:25:49.292Z,7.53
2018-06-08T18:28:17.518Z,8.33
2018-06-08T18:30:46.682Z,8.07
2018-06-08T18:33:15.251Z,8.00
2018-06-08T18:35:43.922Z,8.50
2018-06-08T18:38:12.578Z,8.63
2018-06-08T18:40:41.182Z,8.00
2018-06-08T18:43:09.756Z,8.47
2018-06-08T18:45:38.342Z,7.63
2018-06-08T18:48:06.923Z,9.93
2018-06-08T18:50:35.518Z,8.30
2018-06-08T18:53:04.099Z,8.33
2018-06-08T18:55:32.758Z,8.87
2018-06-08T18:58:01.376Z,7.33
2018-06-08T19:00:29.969Z,8.93
2018-06-08T19:02:58.556Z,7.97
2018-06-08T19:05:27.495Z,8.53
2018-06-08T19:07:56.784Z,8.43
2018-06-08T19:10:25.361Z,6.20
2018-06-08T19:12:53.946Z,5.20
2018-06-08T19:15:22.525Z,3.83
2018-06-08T19:17:51.134Z,3.90
2018-06-08T19:20:19.711Z,4.90
2018-06-08T19:22:48.291Z,5.37
2018-06-08T19:25:16.911Z,6.03
2018-06-08T19:27:45.462Z,6.00
2018-06-08T19:30:14.055Z,6.43
2018-06-08T19:32:42.692Z,6.20
2018-06-08T19:35:11.288Z,6.63
2018-06-08T19:37:39.833Z,6.20
2018-06-08T19:40:08.427Z,6.47
2018-06-08T19:42:37.019Z,6.83
2018-06-08T19:45:05.895Z,7.87
2018-06-08T19:47:34.470Z,6.70
2018-06-08T19:50:03.123Z,7.67
2018-06-08T19:52:31.726Z,7.97
2018-06-08T19:55:00.307Z,7.70
2018-06-08T19:57:28.930Z,5.47
2018-06-08T19:59:57.514Z,6.27
2018-06-08T20:02:27.035Z,7.53
2018-06-08T20:04:55.614Z,6.60
2018-06-08T20:07:24.205Z,7.30
2018-06-08T20:09:52.790Z,7.60
2018-06-08T20:12:21.405Z,8.03
2018-06-08T20:14:49.972Z,7.97
2018-06-08T20:17:18.576Z,8.10
2018-06-08T20:19:47.130Z,6.47
2018-06-08T20:22:15.730Z,6.80
2018-06-08T20:24:44.396Z,7.53
2018-06-08T20:27:13.023Z,8.07
2018-06-08T20:29:41.588Z,7.10
2018-06-08T20:32:10.191Z,7.97
2018-06-08T20:34:38.759Z,7.70
2018-06-08T20:37:07.359Z,7.40
2018-06-08T20:39:35.925Z,6.60
2018-06-08T20:42:04.524Z,7.40
2018-06-08T20:44:32.742Z,8.13
2018-06-08T20:47:01.326Z,8.03
2018-06-08T20:49:29.900Z,8.23
2018-06-08T20:51:58.483Z,6.57
2018-06-08T20:54:27.073Z,7.10
2018-06-08T20:57:06.825Z,7.17
2018-06-08T20:59:35.404Z,8.50
2018-06-08T21:02:04.107Z,6.50
2018-06-08T21:04:32.670Z,6.70
2018-06-08T21:07:01.267Z,6.83
2018-06-08T21:09:29.830Z,7.37
2018-06-08T21:11:58.447Z,6.93
2018-06-08T21:14:27.009Z,7.50
2018-06-08T21:16:55.636Z,7.30
2018-06-08T21:19:24.205Z,6.60
2018-06-08T21:21:52.779Z,7.33
2018-06-08T21:24:21.343Z,7.00
2018-06-08T21:26:49.914Z,7.23
2018-06-08T21:29:18.537Z,7.23
2018-06-08T21:31:47.126Z,8.30
2018-06-08T21:34:15.715Z,7.50
2018-06-08T21:36:44.307Z,7.80
2018-06-08T21:39:12.907Z,8.30
2018-06-08T21:41:41.528Z,7.63
2018-06-08T21:44:10.131Z,8.10
2018-06-08T21:46:38.675Z,8.17
2018-06-08T21:49:07.300Z,7.70
2018-06-08T21:51:35.854Z,8.67
2018-06-08T21:54:04.462Z,8.17
2018-06-08T21:56:33.019Z,7.90
2018-06-08T21:59:01.592Z,8.20
2018-06-08T22:01:30.183Z,7.47
2018-06-08T22:03:58.809Z,8.23
2018-06-08T22:06:27.027Z,7.23
2018-06-08T22:08:55.626Z,7.87
2018-06-08T22:11:24.211Z,9.10
2018-06-08T22:13:52.841Z,8.00
2018-06-08T22:16:21.441Z,8.53
2018-06-08T22:18:50.026Z,7.20
2018-06-08T22:21:18.590Z,8.97
2018-06-08T22:23:47.170Z,7.53
2018-06-08T22:26:15.794Z,8.47
2018-06-08T22:28:44.034Z,7.83
2018-06-08T22:31:12.586Z,9.23
2018-06-08T22:33:41.163Z,7.90
2018-06-08T22:36:09.766Z,9.63
2018-06-08T22:38:38.342Z,7.93
2018-06-08T22:41:06.942Z,7.67
2018-06-08T22:43:35.534Z,8.63
2018-06-08T22:46:04.126Z,8.87
2018-06-08T22:48:32.702Z,8.50
2018-06-08T22:51:01.303Z,8.30
2018-06-08T22:53:29.858Z,9.50
2018-06-08T22:55:58.444Z,8.50
2018-06-08T22:58:27.030Z,8.43
2018-06-08T23:00:55.664Z,7.80
2018-06-08T23:03:24.199Z,7.80
2018-06-08T23:05:52.466Z,7.10
2018-06-08T23:08:22.339Z,7.83
2018-06-08T23:10:50.918Z,7.47
2018-06-08T23:13:19.499Z,8.17
2018-06-08T23:15:48.142Z,8.40
2018-06-08T23:18:16.698Z,7.53
2018-06-08T23:20:45.314Z,7.57
2018-06-08T23:23:13.895Z,7.73
2018-06-08T23:25:42.474Z,7.03
2018-06-08T23:28:11.054Z,8.30
2018-06-08T23:30:39.309Z,7.97
2018-06-08T23:33:07.936Z,8.63
2018-06-08T23:35:36.510Z,8.00
2018-06-08T23:38:05.104Z,8.23
2018-06-08T23:40:33.690Z,7.80
2018-06-08T23:43:02.459Z,8.47
2018-06-08T23:45:31.010Z,8.17
2018-06-08T23:47:59.587Z,9.80
2018-06-08T23:50:27.833Z,8.77
2018-06-08T23:52:56.455Z,8.93
2018-06-08T23:55:25.025Z,9.50
2018-06-08T23:57:53.631Z,9.00
